Denver, CO (80238)

12:36 AM MDT on June 23, 2017 (GMT -0600)
Bluff Lake Stapleton 28th Pl | | Change Station

Elev 5330 ft 39.76 °N, 104.86 °W | Updated 8 seconds ago

Clear
Clear
64.4 °F
Feels Like 64.4 °F
N
2.0
Wind Variable Wind from West

Today
High -- | Low -- °F
--% Chance of Precip.
Yesterday
High -- | Low -- °F
Precip. -- in
Pressure 29.81 in
Visibility 10.0 miles
Clouds Few 9000 ft
Scattered Clouds 22000 ft
Dew Point 54 °F
Humidity 69%
Rainfall 0.00 in
Snow Depth Not available.
5:32 AM 8:31 PM
Waning Crescent, 1% visible
METAR KBKF 230558Z 10010KT 10SM FEW090 SCT220 17/12 A3006 RMK AO2A SLP094 T01740121 10239 20173 51014
Pressure 29.81 in
Visibility 10.0 miles
Clouds Few 9000 ft
Scattered Clouds 22000 ft
Dew Point 54 °F
Humidity 69%
Rainfall 0.00 in
Snow Depth Not available.
5:32 AM 8:31 PM
Waning Crescent, 1% visible
METAR KBKF 230558Z 10010KT 10SM FEW090 SCT220 17/12 A3006 RMK AO2A SLP094 T01740121 10239 20173 51014

Get Severe Weather Alerts

Thanks for signing up!

Be on the lookout for a verification email in your inbox.

You'll start receiving the daily forecast at 6 AM.

×

10-Day Weather Forecast

Almanac

Astronomy

Jun. 23, 2017 Rise Set
Actual Time
Civil Twilight
Nautical Twilight
Astronomical Twilight
Moon
Length of Visible Light
Length of Day
Tomorrow will be .
, % of the Moon is Illuminated

Today's Extremes

State Highs State Lows

Community

WunderPhotos

Category 6

Welcome to Category 6. This is the collective home for Weather Underground's featured writeups by Dr. Jeff Masters (right), Bob Henson (left), Chris Burt, and other regular contributors.

Nearby

Air Quality

  Air Quality AQ Index Pollutant
Not available.

Snow Depth

Station Depth Elevation

Earthquake Activity

City Distance Mag. Time & Date
Minimum magnitude displayed is 2.5.

Coastal Water Temperatures

Place Temperature

Stations

Nearby Weather Stations

Station Location Temp. Windchill Dew Point Humidity Wind Precip. Elev Updated Type
                   

Watches & Warnings

There are currently no watches in effect.